sensor_id;sensor_type;location;lat;lon;timestamp;pressure;altitude;pressure_sealevel;temperature;humidity
50702;BME280;36670;50.094;8.496;2023-04-27T00:01:14;100558.72;;;8.17;55.82
50702;BME280;36670;50.094;8.496;2023-04-27T00:03:40;100559.56;;;8.18;56.18
50702;BME280;36670;50.094;8.496;2023-04-27T00:06:07;100567.09;;;8.41;55.13
50702;BME280;36670;50.094;8.496;2023-04-27T00:08:33;100568.03;;;8.53;55.20
50702;BME280;36670;50.094;8.496;2023-04-27T00:10:59;100557.13;;;8.89;54.10
50702;BME280;36670;50.094;8.496;2023-04-27T00:13:25;100560.94;;;8.76;54.54
50702;BME280;36670;50.094;8.496;2023-04-27T00:15:51;100557.53;;;8.62;54.29
50702;BME280;36670;50.094;8.496;2023-04-27T00:18:16;100544.81;;;8.49;55.12
50702;BME280;36670;50.094;8.496;2023-04-27T00:20:42;100544.69;;;8.37;55.57
50702;BME280;36670;50.094;8.496;2023-04-27T00:23:08;100541.50;;;8.59;54.90
50702;BME280;36670;50.094;8.496;2023-04-27T00:25:34;100544.59;;;8.63;54.85
50702;BME280;36670;50.094;8.496;2023-04-27T00:27:59;100538.75;;;8.71;54.82
50702;BME280;36670;50.094;8.496;2023-04-27T00:30:25;100539.72;;;8.65;54.23
50702;BME280;36670;50.094;8.496;2023-04-27T00:32:50;100536.84;;;8.41;54.99
50702;BME280;36670;50.094;8.496;2023-04-27T00:35:15;100537.63;;;8.30;55.91
50702;BME280;36670;50.094;8.496;2023-04-27T00:37:41;100535.09;;;8.28;56.03
50702;BME280;36670;50.094;8.496;2023-04-27T00:40:07;100544.34;;;8.34;55.15
50702;BME280;36670;50.094;8.496;2023-04-27T00:42:33;100541.06;;;8.25;55.81
50702;BME280;36670;50.094;8.496;2023-04-27T00:44:58;100540.72;;;8.33;55.43
50702;BME280;36670;50.094;8.496;2023-04-27T00:47:24;100551.53;;;8.65;54.27
50702;BME280;36670;50.094;8.496;2023-04-27T00:49:50;100547.00;;;8.59;54.82
50702;BME280;36670;50.094;8.496;2023-04-27T00:52:16;100545.53;;;8.57;55.03
50702;BME280;36670;50.094;8.496;2023-04-27T00:54:41;100538.94;;;8.27;55.68
50702;BME280;36670;50.094;8.496;2023-04-27T00:57:07;100542.25;;;7.99;56.28
50702;BME280;36670;50.094;8.496;2023-04-27T00:59:33;100553.09;;;7.75;57.20
50702;BME280;36670;50.094;8.496;2023-04-27T01:01:59;100550.75;;;7.54;57.31
50702;BME280;36670;50.094;8.496;2023-04-27T01:04:24;100550.81;;;7.47;57.93
50702;BME280;36670;50.094;8.496;2023-04-27T01:06:51;100555.91;;;7.68;57.57
50702;BME280;36670;50.094;8.496;2023-04-27T01:09:16;100553.16;;;7.68;57.73
50702;BME280;36670;50.094;8.496;2023-04-27T01:11:46;100562.19;;;8.13;56.61
50702;BME280;36670;50.094;8.496;2023-04-27T01:14:12;100554.91;;;8.18;56.41
50702;BME280;36670;50.094;8.496;2023-04-27T01:16:37;100552.31;;;8.05;56.52
50702;BME280;36670;50.094;8.496;2023-04-27T01:19:03;100556.75;;;8.06;56.81
50702;BME280;36670;50.094;8.496;2023-04-27T01:21:29;100555.66;;;8.26;56.13
50702;BME280;36670;50.094;8.496;2023-04-27T01:23:58;100553.91;;;8.31;56.66
50702;BME280;36670;50.094;8.496;2023-04-27T01:26:23;100553.66;;;8.33;56.57
50702;BME280;36670;50.094;8.496;2023-04-27T01:28:48;100553.41;;;8.53;56.04
50702;BME280;36670;50.094;8.496;2023-04-27T01:31:14;100555.34;;;8.52;55.89
50702;BME280;36670;50.094;8.496;2023-04-27T01:33:39;100557.13;;;8.59;55.72
50702;BME280;36670;50.094;8.496;2023-04-27T01:36:05;100555.06;;;8.05;56.97
50702;BME280;36670;50.094;8.496;2023-04-27T01:38:32;100566.06;;;7.86;57.03
50702;BME280;36670;50.094;8.496;2023-04-27T01:40:57;100571.56;;;8.05;56.60
50702;BME280;36670;50.094;8.496;2023-04-27T01:43:27;100565.50;;;8.33;55.91
50702;BME280;36670;50.094;8.496;2023-04-27T01:45:53;100567.66;;;7.94;56.94
50702;BME280;36670;50.094;8.496;2023-04-27T01:48:19;100572.38;;;7.68;57.41
50702;BME280;36670;50.094;8.496;2023-04-27T01:50:44;100578.06;;;7.48;58.38
50702;BME280;36670;50.094;8.496;2023-04-27T01:53:10;100579.94;;;7.73;58.42
50702;BME280;36670;50.094;8.496;2023-04-27T01:55:35;100576.53;;;7.52;58.33
50702;BME280;36670;50.094;8.496;2023-04-27T01:58:01;100585.56;;;7.34;58.53
50702;BME280;36670;50.094;8.496;2023-04-27T02:00:26;100589.28;;;7.22;59.15
50702;BME280;36670;50.094;8.496;2023-04-27T02:02:52;100587.13;;;6.98;59.35
50702;BME280;36670;50.094;8.496;2023-04-27T02:05:18;100588.75;;;7.06;60.01
50702;BME280;36670;50.094;8.496;2023-04-27T02:07:44;100590.94;;;6.97;59.95
50702;BME280;36670;50.094;8.496;2023-04-27T02:10:10;100585.75;;;7.14;59.68
50702;BME280;36670;50.094;8.496;2023-04-27T02:12:35;100585.44;;;6.97;60.02
50702;BME280;36670;50.094;8.496;2023-04-27T02:15:01;100586.09;;;6.93;59.80
50702;BME280;36670;50.094;8.496;2023-04-27T02:17:27;100588.63;;;6.94;59.83
50702;BME280;36670;50.094;8.496;2023-04-27T02:19:53;100590.78;;;7.17;59.68
50702;BME280;36670;50.094;8.496;2023-04-27T02:22:19;100582.72;;;7.23;59.26
50702;BME280;36670;50.094;8.496;2023-04-27T02:24:44;100591.69;;;7.11;58.98
50702;BME280;36670;50.094;8.496;2023-04-27T02:27:10;100586.84;;;7.32;58.75
50702;BME280;36670;50.094;8.496;2023-04-27T02:29:35;100592.66;;;7.24;58.82
50702;BME280;36670;50.094;8.496;2023-04-27T02:32:04;100596.38;;;7.04;59.00
50702;BME280;36670;50.094;8.496;2023-04-27T02:34:29;100602.31;;;7.01;59.27
50702;BME280;36670;50.094;8.496;2023-04-27T02:36:55;100599.31;;;6.71;60.03
50702;BME280;36670;50.094;8.496;2023-04-27T02:39:20;100599.22;;;6.91;59.50
50702;BME280;36670;50.094;8.496;2023-04-27T02:41:45;100604.59;;;7.04;59.33
50702;BME280;36670;50.094;8.496;2023-04-27T02:44:11;100614.78;;;7.29;58.61
50702;BME280;36670;50.094;8.496;2023-04-27T02:46:36;100597.28;;;7.23;59.08
50702;BME280;36670;50.094;8.496;2023-04-27T02:49:02;100598.97;;;7.24;59.08
50702;BME280;36670;50.094;8.496;2023-04-27T02:51:27;100601.88;;;6.72;59.86
50702;BME280;36670;50.094;8.496;2023-04-27T02:53:53;100592.25;;;6.88;59.73
50702;BME280;36670;50.094;8.496;2023-04-27T02:56:18;100600.00;;;6.66;59.79
50702;BME280;36670;50.094;8.496;2023-04-27T02:58:44;100580.38;;;6.94;59.48
50702;BME280;36670;50.094;8.496;2023-04-27T03:01:09;100582.53;;;6.92;59.57
50702;BME280;36670;50.094;8.496;2023-04-27T03:03:34;100586.00;;;7.06;59.02
50702;BME280;36670;50.094;8.496;2023-04-27T03:06:00;100588.19;;;6.65;59.96
50702;BME280;36670;50.094;8.496;2023-04-27T03:08:25;100588.47;;;6.51;60.50
50702;BME280;36670;50.094;8.496;2023-04-27T03:10:50;100580.22;;;6.51;60.01
50702;BME280;36670;50.094;8.496;2023-04-27T03:13:15;100585.22;;;6.67;59.91
50702;BME280;36670;50.094;8.496;2023-04-27T03:15:41;100587.56;;;6.57;59.94
50702;BME280;36670;50.094;8.496;2023-04-27T03:18:06;100589.00;;;6.66;59.82
50702;BME280;36670;50.094;8.496;2023-04-27T03:20:32;100580.91;;;6.46;60.50
50702;BME280;36670;50.094;8.496;2023-04-27T03:22:57;100588.66;;;6.56;59.50
50702;BME280;36670;50.094;8.496;2023-04-27T03:25:22;100590.47;;;6.69;59.80
50702;BME280;36670;50.094;8.496;2023-04-27T03:27:47;100580.72;;;7.11;58.58
50702;BME280;36670;50.094;8.496;2023-04-27T03:30:13;100578.28;;;6.96;58.88
50702;BME280;36670;50.094;8.496;2023-04-27T03:32:38;100580.31;;;7.08;58.82
50702;BME280;36670;50.094;8.496;2023-04-27T03:35:04;100571.47;;;7.06;58.73
50702;BME280;36670;50.094;8.496;2023-04-27T03:37:33;100564.84;;;7.39;57.81
50702;BME280;36670;50.094;8.496;2023-04-27T03:39:58;100572.94;;;7.33;58.16
50702;BME280;36670;50.094;8.496;2023-04-27T03:42:23;100573.44;;;7.67;57.71
50702;BME280;36670;50.094;8.496;2023-04-27T03:44:49;100564.06;;;7.75;56.83
50702;BME280;36670;50.094;8.496;2023-04-27T03:47:14;100566.75;;;7.38;57.70
50702;BME280;36670;50.094;8.496;2023-04-27T03:49:40;100567.13;;;7.16;58.23
50702;BME280;36670;50.094;8.496;2023-04-27T03:52:05;100564.97;;;7.25;57.84
50702;BME280;36670;50.094;8.496;2023-04-27T03:54:31;100566.72;;;7.20;58.03
50702;BME280;36670;50.094;8.496;2023-04-27T03:56:56;100576.59;;;7.21;58.39
50702;BME280;36670;50.094;8.496;2023-04-27T03:59:21;100577.53;;;7.58;57.53
50702;BME280;36670;50.094;8.496;2023-04-27T04:01:46;100579.69;;;7.31;58.17
50702;BME280;36670;50.094;8.496;2023-04-27T04:04:12;100589.38;;;7.59;57.23
50702;BME280;36670;50.094;8.496;2023-04-27T04:06:37;100589.97;;;7.42;57.74
50702;BME280;36670;50.094;8.496;2023-04-27T04:09:02;100587.81;;;7.19;58.21
50702;BME280;36670;50.094;8.496;2023-04-27T04:11:28;100597.22;;;7.05;58.60
50702;BME280;36670;50.094;8.496;2023-04-27T04:13:53;100593.91;;;6.96;59.24
50702;BME280;36670;50.094;8.496;2023-04-27T04:16:19;100592.19;;;7.02;59.08
50702;BME280;36670;50.094;8.496;2023-04-27T04:18:45;100592.81;;;7.29;58.82
50702;BME280;36670;50.094;8.496;2023-04-27T04:21:10;100578.63;;;7.57;58.26
50702;BME280;36670;50.094;8.496;2023-04-27T04:23:36;100591.56;;;7.50;58.08
50702;BME280;36670;50.094;8.496;2023-04-27T04:26:04;100588.66;;;7.45;58.79
50702;BME280;36670;50.094;8.496;2023-04-27T04:28:33;100588.25;;;7.66;57.96
50702;BME280;36670;50.094;8.496;2023-04-27T04:31:00;100601.50;;;7.51;58.46
50702;BME280;36670;50.094;8.496;2023-04-27T04:33:26;100595.22;;;7.88;57.70
50702;BME280;36670;50.094;8.496;2023-04-27T04:35:51;100590.03;;;7.98;57.41
50702;BME280;36670;50.094;8.496;2023-04-27T04:38:18;100583.78;;;7.91;57.42
50702;BME280;36670;50.094;8.496;2023-04-27T04:40:43;100589.41;;;7.96;57.39
50702;BME280;36670;50.094;8.496;2023-04-27T04:43:08;100591.69;;;7.80;57.18
50702;BME280;36670;50.094;8.496;2023-04-27T04:45:35;100595.44;;;7.86;57.65
50702;BME280;36670;50.094;8.496;2023-04-27T04:48:01;100596.97;;;7.82;57.38
50702;BME280;36670;50.094;8.496;2023-04-27T04:50:26;100600.56;;;7.82;56.96
50702;BME280;36670;50.094;8.496;2023-04-27T04:52:52;100597.66;;;7.96;57.29
50702;BME280;36670;50.094;8.496;2023-04-27T04:55:17;100593.94;;;8.27;56.57
50702;BME280;36670;50.094;8.496;2023-04-27T04:57:45;100610.69;;;8.26;56.69
50702;BME280;36670;50.094;8.496;2023-04-27T05:00:11;100613.13;;;8.52;56.05
50702;BME280;36670;50.094;8.496;2023-04-27T05:02:41;100608.81;;;8.19;57.06
50702;BME280;36670;50.094;8.496;2023-04-27T05:05:07;100612.97;;;8.29;56.76
50702;BME280;36670;50.094;8.496;2023-04-27T05:07:33;100610.88;;;8.06;56.48
50702;BME280;36670;50.094;8.496;2023-04-27T05:09:58;100614.31;;;7.82;57.02
50702;BME280;36670;50.094;8.496;2023-04-27T05:12:24;100614.25;;;7.89;57.08
50702;BME280;36670;50.094;8.496;2023-04-27T05:14:50;100620.66;;;8.01;56.38
50702;BME280;36670;50.094;8.496;2023-04-27T05:17:19;100620.19;;;7.86;56.89
50702;BME280;36670;50.094;8.496;2023-04-27T05:19:44;100625.72;;;8.05;56.54
50702;BME280;36670;50.094;8.496;2023-04-27T05:22:10;100631.44;;;8.40;56.30
50702;BME280;36670;50.094;8.496;2023-04-27T05:24:35;100621.16;;;9.27;55.02
50702;BME280;36670;50.094;8.496;2023-04-27T05:27:01;100616.91;;;10.37;53.50
50702;BME280;36670;50.094;8.496;2023-04-27T05:29:26;100613.84;;;11.08;52.84
50702;BME280;36670;50.094;8.496;2023-04-27T05:31:52;100609.94;;;12.28;50.34
50702;BME280;36670;50.094;8.496;2023-04-27T05:34:18;100613.03;;;13.04;48.70
50702;BME280;36670;50.094;8.496;2023-04-27T05:36:43;100618.59;;;14.01;46.27
50702;BME280;36670;50.094;8.496;2023-04-27T05:39:10;100612.22;;;14.00;45.01
50702;BME280;36670;50.094;8.496;2023-04-27T05:41:36;100615.69;;;14.28;44.73
50702;BME280;36670;50.094;8.496;2023-04-27T05:44:02;100615.81;;;14.49;42.62
50702;BME280;36670;50.094;8.496;2023-04-27T05:46:27;100615.44;;;15.14;41.98
50702;BME280;36670;50.094;8.496;2023-04-27T05:48:52;100615.75;;;15.33;41.10
50702;BME280;36670;50.094;8.496;2023-04-27T05:51:18;100613.22;;;16.09;40.67
50702;BME280;36670;50.094;8.496;2023-04-27T05:53:43;100621.88;;;15.86;38.71
50702;BME280;36670;50.094;8.496;2023-04-27T05:56:09;100613.56;;;15.50;38.88
50702;BME280;36670;50.094;8.496;2023-04-27T05:58:35;100627.06;;;14.90;39.60
50702;BME280;36670;50.094;8.496;2023-04-27T06:01:01;100630.91;;;14.68;40.23
50702;BME280;36670;50.094;8.496;2023-04-27T06:03:29;100624.91;;;13.91;39.14
50702;BME280;36670;50.094;8.496;2023-04-27T06:05:55;100642.09;;;12.74;41.44
50702;BME280;36670;50.094;8.496;2023-04-27T06:08:20;100640.00;;;12.20;42.97
50702;BME280;36670;50.094;8.496;2023-04-27T06:10:46;100638.09;;;11.86;43.46
50702;BME280;36670;50.094;8.496;2023-04-27T06:13:11;100649.59;;;11.78;43.46
50702;BME280;36670;50.094;8.496;2023-04-27T06:15:36;100644.91;;;11.61;44.62
50702;BME280;36670;50.094;8.496;2023-04-27T06:18:02;100650.81;;;11.19;45.31
50702;BME280;36670;50.094;8.496;2023-04-27T06:20:27;100647.81;;;11.21;45.14
50702;BME280;36670;50.094;8.496;2023-04-27T06:22:52;100652.78;;;12.04;44.45
50702;BME280;36670;50.094;8.496;2023-04-27T06:25:18;100651.69;;;11.71;43.74
50702;BME280;36670;50.094;8.496;2023-04-27T06:27:43;100656.06;;;11.67;44.35
50702;BME280;36670;50.094;8.496;2023-04-27T06:30:08;100652.16;;;12.19;43.81
50702;BME280;36670;50.094;8.496;2023-04-27T06:32:34;100648.50;;;12.13;43.32
50702;BME280;36670;50.094;8.496;2023-04-27T06:34:59;100651.16;;;12.25;44.85
50702;BME280;36670;50.094;8.496;2023-04-27T06:37:25;100655.84;;;13.13;43.87
50702;BME280;36670;50.094;8.496;2023-04-27T06:39:51;100657.53;;;13.74;41.80
50702;BME280;36670;50.094;8.496;2023-04-27T06:42:16;100648.66;;;13.17;41.76
50702;BME280;36670;50.094;8.496;2023-04-27T06:44:44;100654.78;;;13.19;41.96
50702;BME280;36670;50.094;8.496;2023-04-27T06:47:17;100651.50;;;13.22;41.29
50702;BME280;36670;50.094;8.496;2023-04-27T06:49:42;100650.31;;;12.91;40.81
50702;BME280;36670;50.094;8.496;2023-04-27T06:52:08;100649.00;;;12.49;41.94
50702;BME280;36670;50.094;8.496;2023-04-27T06:54:33;100662.91;;;12.54;41.83
50702;BME280;36670;50.094;8.496;2023-04-27T06:57:11;100663.19;;;12.36;41.20
50702;BME280;36670;50.094;8.496;2023-04-27T06:59:37;100660.69;;;12.34;41.44
50702;BME280;36670;50.094;8.496;2023-04-27T07:02:02;100654.72;;;12.64;41.71
50702;BME280;36670;50.094;8.496;2023-04-27T07:04:28;100653.19;;;13.01;40.97
50702;BME280;36670;50.094;8.496;2023-04-27T07:06:54;100670.28;;;12.93;40.77
50702;BME280;36670;50.094;8.496;2023-04-27T07:09:20;100654.31;;;13.00;40.51
50702;BME280;36670;50.094;8.496;2023-04-27T07:11:45;100652.91;;;12.75;40.26
50702;BME280;36670;50.094;8.496;2023-04-27T07:14:10;100663.19;;;12.75;39.77
50702;BME280;36670;50.094;8.496;2023-04-27T07:16:36;100661.97;;;12.93;40.62
50702;BME280;36670;50.094;8.496;2023-04-27T07:19:01;100652.38;;;13.01;40.17
50702;BME280;36670;50.094;8.496;2023-04-27T07:21:27;100655.94;;;12.96;40.10
50702;BME280;36670;50.094;8.496;2023-04-27T07:23:53;100653.53;;;13.05;40.14
50702;BME280;36670;50.094;8.496;2023-04-27T07:26:21;100652.44;;;13.06;39.95
50702;BME280;36670;50.094;8.496;2023-04-27T07:28:49;100653.88;;;13.13;40.40
50702;BME280;36670;50.094;8.496;2023-04-27T07:31:15;100649.31;;;12.75;40.45
50702;BME280;36670;50.094;8.496;2023-04-27T07:33:40;100654.19;;;12.90;40.53
50702;BME280;36670;50.094;8.496;2023-04-27T07:36:06;100651.84;;;13.04;40.23
50702;BME280;36670;50.094;8.496;2023-04-27T07:38:32;100659.13;;;13.10;41.29
50702;BME280;36670;50.094;8.496;2023-04-27T07:40:59;100640.19;;;13.29;39.89
50702;BME280;36670;50.094;8.496;2023-04-27T07:43:26;100647.19;;;13.09;40.40
50702;BME280;36670;50.094;8.496;2023-04-27T07:48:30;100649.88;;;13.54;40.71
50702;BME280;36670;50.094;8.496;2023-04-27T07:50:56;100653.97;;;13.46;39.42
50702;BME280;36670;50.094;8.496;2023-04-27T07:53:22;100656.97;;;13.39;40.01
50702;BME280;36670;50.094;8.496;2023-04-27T07:55:48;100655.38;;;13.21;39.59
50702;BME280;36670;50.094;8.496;2023-04-27T07:58:13;100650.69;;;13.00;39.48
50702;BME280;36670;50.094;8.496;2023-04-27T08:00:38;100656.66;;;13.13;40.32
50702;BME280;36670;50.094;8.496;2023-04-27T08:03:03;100650.13;;;13.25;40.33
50702;BME280;36670;50.094;8.496;2023-04-27T08:05:29;100642.38;;;13.27;39.82
50702;BME280;36670;50.094;8.496;2023-04-27T08:07:57;100640.59;;;13.38;40.04
50702;BME280;36670;50.094;8.496;2023-04-27T08:10:23;100653.72;;;13.47;38.97
50702;BME280;36670;50.094;8.496;2023-04-27T08:12:48;100644.31;;;13.54;39.36
50702;BME280;36670;50.094;8.496;2023-04-27T08:15:14;100645.88;;;13.39;40.28
50702;BME280;36670;50.094;8.496;2023-04-27T08:17:40;100643.75;;;13.52;39.48
50702;BME280;36670;50.094;8.496;2023-04-27T08:20:06;100647.16;;;13.59;39.31
50702;BME280;36670;50.094;8.496;2023-04-27T08:22:33;100646.47;;;13.46;39.10
50702;BME280;36670;50.094;8.496;2023-04-27T08:25:03;100646.56;;;13.94;39.53
50702;BME280;36670;50.094;8.496;2023-04-27T08:27:29;100648.03;;;14.02;38.14
50702;BME280;36670;50.094;8.496;2023-04-27T08:29:55;100638.75;;;13.86;38.43
50702;BME280;36670;50.094;8.496;2023-04-27T08:32:20;100642.94;;;13.89;39.10
50702;BME280;36670;50.094;8.496;2023-04-27T08:34:46;100642.94;;;13.89;38.02
50702;BME280;36670;50.094;8.496;2023-04-27T08:37:11;100637.25;;;13.73;38.31
50702;BME280;36670;50.094;8.496;2023-04-27T08:39:36;100630.31;;;13.71;38.57
50702;BME280;36670;50.094;8.496;2023-04-27T08:42:12;100641.81;;;13.52;38.81
50702;BME280;36670;50.094;8.496;2023-04-27T08:44:42;100633.13;;;13.16;39.11
50702;BME280;36670;50.094;8.496;2023-04-27T08:47:08;100633.22;;;12.99;39.69
50702;BME280;36670;50.094;8.496;2023-04-27T08:49:34;100640.75;;;13.04;39.49
50702;BME280;36670;50.094;8.496;2023-04-27T08:52:02;100639.31;;;13.51;39.85
50702;BME280;36670;50.094;8.496;2023-04-27T08:54:27;100644.44;;;14.02;39.42
50702;BME280;36670;50.094;8.496;2023-04-27T08:56:53;100646.44;;;14.16;38.35
50702;BME280;36670;50.094;8.496;2023-04-27T08:59:18;100644.59;;;14.32;38.41
50702;BME280;36670;50.094;8.496;2023-04-27T09:01:48;100653.06;;;14.53;38.63
50702;BME280;36670;50.094;8.496;2023-04-27T09:04:19;100648.72;;;14.25;37.97
50702;BME280;36670;50.094;8.496;2023-04-27T09:06:47;100637.56;;;14.14;38.57
50702;BME280;36670;50.094;8.496;2023-04-27T09:09:21;100645.47;;;14.38;37.01
50702;BME280;36670;50.094;8.496;2023-04-27T09:11:47;100648.94;;;14.13;38.53
50702;BME280;36670;50.094;8.496;2023-04-27T09:14:23;100636.19;;;14.22;38.08
50702;BME280;36670;50.094;8.496;2023-04-27T09:16:56;100636.66;;;14.04;38.59
50702;BME280;36670;50.094;8.496;2023-04-27T09:19:27;100634.91;;;14.40;38.60
50702;BME280;36670;50.094;8.496;2023-04-27T09:22:08;100634.34;;;14.38;38.89
50702;BME280;36670;50.094;8.496;2023-04-27T09:24:35;100634.09;;;14.40;38.60
50702;BME280;36670;50.094;8.496;2023-04-27T09:27:01;100624.34;;;15.11;38.54
50702;BME280;36670;50.094;8.496;2023-04-27T09:29:37;100626.88;;;15.43;38.83
50702;BME280;36670;50.094;8.496;2023-04-27T09:32:18;100621.34;;;15.79;36.95
50702;BME280;36670;50.094;8.496;2023-04-27T09:34:45;100619.41;;;15.80;35.71
50702;BME280;36670;50.094;8.496;2023-04-27T09:37:11;100612.44;;;15.77;36.15
50702;BME280;36670;50.094;8.496;2023-04-27T09:39:40;100616.31;;;15.86;36.17
50702;BME280;36670;50.094;8.496;2023-04-27T09:42:06;100613.25;;;15.78;36.14
50702;BME280;36670;50.094;8.496;2023-04-27T09:44:33;100607.69;;;15.98;34.02
50702;BME280;36670;50.094;8.496;2023-04-27T09:47:05;100606.84;;;16.03;35.21
50702;BME280;36670;50.094;8.496;2023-04-27T09:49:33;100599.16;;;16.55;35.45
50702;BME280;36670;50.094;8.496;2023-04-27T09:51:59;100596.34;;;17.10;34.51
50702;BME280;36670;50.094;8.496;2023-04-27T09:54:27;100594.13;;;17.12;34.58
50702;BME280;36670;50.094;8.496;2023-04-27T09:57:13;100599.00;;;16.91;34.42
50702;BME280;36670;50.094;8.496;2023-04-27T09:59:52;100584.06;;;17.11;34.56
50702;BME280;36670;50.094;8.496;2023-04-27T10:02:48;100586.00;;;17.16;33.59
50702;BME280;36670;50.094;8.496;2023-04-27T10:08:08;100585.94;;;17.26;32.62
50702;BME280;36670;50.094;8.496;2023-04-27T10:10:49;100584.44;;;16.99;33.42
50702;BME280;36670;50.094;8.496;2023-04-27T10:13:23;100585.50;;;17.09;32.81
50702;BME280;36670;50.094;8.496;2023-04-27T10:15:49;100592.63;;;16.80;33.45
50702;BME280;36670;50.094;8.496;2023-04-27T10:18:26;100585.69;;;17.57;32.47
50702;BME280;36670;50.094;8.496;2023-04-27T10:20:51;100586.53;;;17.18;31.86
50702;BME280;36670;50.094;8.496;2023-04-27T10:23:24;100584.06;;;16.56;32.80
50702;BME280;36670;50.094;8.496;2023-04-27T10:25:50;100579.69;;;16.45;32.71
50702;BME280;36670;50.094;8.496;2023-04-27T10:28:16;100586.69;;;16.97;33.43
50702;BME280;36670;50.094;8.496;2023-04-27T10:30:44;100563.00;;;17.64;33.57
50702;BME280;36670;50.094;8.496;2023-04-27T10:33:17;100569.34;;;18.04;33.46
50702;BME280;36670;50.094;8.496;2023-04-27T10:35:54;100560.00;;;18.57;31.62
50702;BME280;36670;50.094;8.496;2023-04-27T10:38:25;100572.63;;;18.54;31.48
50702;BME280;36670;50.094;8.496;2023-04-27T10:41:02;100570.59;;;17.87;31.26
50702;BME280;36670;50.094;8.496;2023-04-27T10:43:32;100575.31;;;17.92;31.54
50702;BME280;36670;50.094;8.496;2023-04-27T10:46:14;100573.72;;;17.81;31.16
50702;BME280;36670;50.094;8.496;2023-04-27T10:48:40;100566.16;;;18.11;31.07
50702;BME280;36670;50.094;8.496;2023-04-27T10:51:08;100564.31;;;17.42;31.76
50702;BME280;36670;50.094;8.496;2023-04-27T10:53:35;100570.56;;;16.89;32.33
50702;BME280;36670;50.094;8.496;2023-04-27T10:56:00;100574.69;;;17.36;32.07
50702;BME280;36670;50.094;8.496;2023-04-27T10:58:26;100563.19;;;18.02;31.70
50702;BME280;36670;50.094;8.496;2023-04-27T11:00:52;100562.34;;;18.25;32.19
50702;BME280;36670;50.094;8.496;2023-04-27T11:03:28;100553.66;;;18.51;31.08
50702;BME280;36670;50.094;8.496;2023-04-27T11:06:02;100550.22;;;18.98;30.58
50702;BME280;36670;50.094;8.496;2023-04-27T11:08:28;100552.47;;;19.15;31.90
50702;BME280;36670;50.094;8.496;2023-04-27T11:10:55;100543.69;;;19.87;31.07
50702;BME280;36670;50.094;8.496;2023-04-27T11:13:25;100540.69;;;19.84;30.48
50702;BME280;36670;50.094;8.496;2023-04-27T11:15:57;100529.50;;;19.98;31.16
50702;BME280;36670;50.094;8.496;2023-04-27T11:18:35;100540.44;;;20.63;30.94
50702;BME280;36670;50.094;8.496;2023-04-27T11:21:09;100532.97;;;20.73;30.09
50702;BME280;36670;50.094;8.496;2023-04-27T11:23:35;100533.34;;;20.16;29.94
50702;BME280;36670;50.094;8.496;2023-04-27T11:26:16;100531.94;;;20.55;30.41
50702;BME280;36670;50.094;8.496;2023-04-27T11:28:44;100526.00;;;20.56;29.35
50702;BME280;36670;50.094;8.496;2023-04-27T11:31:10;100522.47;;;20.78;29.28
50702;BME280;36670;50.094;8.496;2023-04-27T11:33:35;100523.28;;;20.79;29.62
50702;BME280;36670;50.094;8.496;2023-04-27T11:36:03;100526.50;;;20.72;29.43
50702;BME280;36670;50.094;8.496;2023-04-27T11:38:41;100520.75;;;20.41;28.79
50702;BME280;36670;50.094;8.496;2023-04-27T11:41:10;100525.94;;;20.48;29.15
50702;BME280;36670;50.094;8.496;2023-04-27T11:43:39;100515.38;;;20.17;28.83
50702;BME280;36670;50.094;8.496;2023-04-27T11:46:06;100518.47;;;19.87;27.97
50702;BME280;36670;50.094;8.496;2023-04-27T11:48:38;100514.22;;;19.43;29.26
50702;BME280;36670;50.094;8.496;2023-04-27T11:51:05;100511.56;;;19.66;30.43
50702;BME280;36670;50.094;8.496;2023-04-27T11:53:36;100510.78;;;20.07;29.82
50702;BME280;36670;50.094;8.496;2023-04-27T11:56:06;100503.22;;;20.21;29.18
50702;BME280;36670;50.094;8.496;2023-04-27T11:58:38;100502.59;;;20.10;28.71
50702;BME280;36670;50.094;8.496;2023-04-27T12:01:05;100502.13;;;19.61;29.48
50702;BME280;36670;50.094;8.496;2023-04-27T12:03:30;100494.72;;;19.85;29.75
50702;BME280;36670;50.094;8.496;2023-04-27T12:05:59;100480.56;;;20.32;29.06
50702;BME280;36670;50.094;8.496;2023-04-27T12:08:30;100486.06;;;20.23;29.44
50702;BME280;36670;50.094;8.496;2023-04-27T12:10:56;100487.22;;;20.22;29.40
50702;BME280;36670;50.094;8.496;2023-04-27T12:13:21;100490.53;;;20.38;29.29
50702;BME280;36670;50.094;8.496;2023-04-27T12:15:49;100484.00;;;20.28;29.74
50702;BME280;36670;50.094;8.496;2023-04-27T12:18:14;100478.16;;;20.39;29.28
50702;BME280;36670;50.094;8.496;2023-04-27T12:20:40;100477.47;;;20.19;30.09
50702;BME280;36670;50.094;8.496;2023-04-27T12:23:05;100474.72;;;20.56;30.17
50702;BME280;36670;50.094;8.496;2023-04-27T12:25:30;100467.75;;;20.90;29.33
50702;BME280;36670;50.094;8.496;2023-04-27T12:27:55;100470.06;;;20.88;29.56
50702;BME280;36670;50.094;8.496;2023-04-27T12:30:22;100467.28;;;21.19;29.46
50702;BME280;36670;50.094;8.496;2023-04-27T12:32:48;100458.94;;;21.05;29.17
50702;BME280;36670;50.094;8.496;2023-04-27T12:35:13;100461.09;;;21.08;28.99
50702;BME280;36670;50.094;8.496;2023-04-27T12:37:38;100455.81;;;21.29;28.40
50702;BME280;36670;50.094;8.496;2023-04-27T12:40:04;100463.81;;;20.91;28.36
50702;BME280;36670;50.094;8.496;2023-04-27T12:42:33;100460.41;;;20.43;28.45
50702;BME280;36670;50.094;8.496;2023-04-27T12:44:59;100464.72;;;20.50;29.26
50702;BME280;36670;50.094;8.496;2023-04-27T12:47:24;100463.31;;;20.38;29.56
50702;BME280;36670;50.094;8.496;2023-04-27T12:49:50;100445.88;;;20.78;28.57
50702;BME280;36670;50.094;8.496;2023-04-27T12:52:15;100454.00;;;20.66;28.50
50702;BME280;36670;50.094;8.496;2023-04-27T12:54:46;100449.31;;;20.75;28.74
50702;BME280;36670;50.094;8.496;2023-04-27T12:57:12;100443.38;;;20.62;28.17
50702;BME280;36670;50.094;8.496;2023-04-27T12:59:37;100447.44;;;20.34;28.65